Snelling, California
Current Conditions -  °F | °C
As of 12:45 PM on Friday 24 Oct 2014 (Local Time) from KMER Reporting Station
Clear Clear  
Wind Chill: 79°   Ceiling: Unl
Heat Index: 79°   Visibility: 7mi
Dew Point: 48°   Wind: 12mph
Humidity: 34%   Direction: 170°S
Pressure: 29.93"   Gusts: NA
Location:  37.52°N, 120.44°W
Report Text: KMER 241945Z 17010KT 7SM SKC 26/09 A2993
Loading
Personal Weather Stations






























Interactive Weather Map
Tropical Storm Tracking
New forecast layout! Learn more

10-Day Weather Forecast

Advertisements
Track Severe Weather on mobile